sensor_id;sensor_type;location;lat;lon;timestamp;pressure;altitude;pressure_sealevel;temperature;humidity
42247;BME280;27913;42.722;23.268;2023-02-01T00:01:30;95079.84;;;-0.90;98.50
42247;BME280;27913;42.722;23.268;2023-02-01T00:03:56;95063.63;;;-1.04;98.39
42247;BME280;27913;42.722;23.268;2023-02-01T00:06:21;95088.44;;;-0.78;98.61
42247;BME280;27913;42.722;23.268;2023-02-01T00:08:46;95057.03;;;-1.08;98.08
42247;BME280;27913;42.722;23.268;2023-02-01T00:11:12;94970.22;;;-1.56;97.69
42247;BME280;27913;42.722;23.268;2023-02-01T00:13:41;94900.75;;;-2.07;96.93
42247;BME280;27913;42.722;23.268;2023-02-01T00:18:32;95108.97;;;-0.77;96.71
42247;BME280;27913;42.722;23.268;2023-02-01T00:20:58;95114.13;;;-0.77;96.02
42247;BME280;27913;42.722;23.268;2023-02-01T00:23:23;95040.34;;;-1.15;95.25
42247;BME280;27913;42.722;23.268;2023-02-01T00:25:49;95112.28;;;-0.75;94.73
42247;BME280;27913;42.722;23.268;2023-02-01T00:28:14;95099.59;;;-0.78;94.20
42247;BME280;27913;42.722;23.268;2023-02-01T00:30:40;95005.69;;;-1.36;93.73
42247;BME280;27913;42.722;23.268;2023-02-01T00:33:05;95044.19;;;-1.21;93.58
42247;BME280;27913;42.722;23.268;2023-02-01T00:35:31;95013.97;;;-1.43;93.12
42247;BME280;27913;42.722;23.268;2023-02-01T00:37:56;94856.84;;;-2.30;92.74
42247;BME280;27913;42.722;23.268;2023-02-01T00:40:24;95087.94;;;-0.83;92.80
42247;BME280;27913;42.722;23.268;2023-02-01T00:42:49;95092.28;;;-0.84;92.55
42247;BME280;27913;42.722;23.268;2023-02-01T00:45:15;95093.13;;;-0.83;92.49
42247;BME280;27913;42.722;23.268;2023-02-01T00:47:40;94935.53;;;-1.88;91.91
42247;BME280;27913;42.722;23.268;2023-02-01T00:50:06;95083.94;;;-0.88;92.14
42247;BME280;27913;42.722;23.268;2023-02-01T00:52:31;95086.63;;;-0.89;92.10
42247;BME280;27913;42.722;23.268;2023-02-01T00:54:57;95080.06;;;-0.93;91.63
42247;BME280;27913;42.722;23.268;2023-02-01T00:57:22;95075.94;;;-0.96;91.16
42247;BME280;27913;42.722;23.268;2023-02-01T00:59:48;94844.81;;;-2.54;90.43
42247;BME280;27913;42.722;23.268;2023-02-01T01:04:48;94983.66;;;-1.64;90.16
42247;BME280;27913;42.722;23.268;2023-02-01T01:07:14;95071.72;;;-0.97;89.85
42247;BME280;27913;42.722;23.268;2023-02-01T01:09:40;95075.81;;;-0.94;89.62
42247;BME280;27913;42.722;23.268;2023-02-01T01:12:05;95081.69;;;-0.92;88.98
42247;BME280;27913;42.722;23.268;2023-02-01T01:14:31;95075.03;;;-0.95;88.50
42247;BME280;27913;42.722;23.268;2023-02-01T01:16:57;95034.94;;;-1.24;88.16
42247;BME280;27913;42.722;23.268;2023-02-01T01:19:22;95067.47;;;-0.98;87.39
42247;BME280;27913;42.722;23.268;2023-02-01T01:21:48;95046.66;;;-1.19;87.68
42247;BME280;27913;42.722;23.268;2023-02-01T01:24:14;95032.56;;;-1.27;86.96
42247;BME280;27913;42.722;23.268;2023-02-01T01:26:40;95083.81;;;-0.98;86.40
42247;BME280;27913;42.722;23.268;2023-02-01T01:29:05;95078.75;;;-0.99;85.60
42247;BME280;27913;42.722;23.268;2023-02-01T01:31:31;95051.59;;;-1.16;85.25
42247;BME280;27913;42.722;23.268;2023-02-01T01:33:58;95037.03;;;-1.29;84.94
42247;BME280;27913;42.722;23.268;2023-02-01T01:36:25;95092.81;;;-1.03;84.94
42247;BME280;27913;42.722;23.268;2023-02-01T01:38:51;95083.44;;;-1.04;84.74
42247;BME280;27913;42.722;23.268;2023-02-01T01:41:20;94996.22;;;-1.60;84.58
42247;BME280;27913;42.722;23.268;2023-02-01T01:43:59;95037.94;;;-1.30;84.17
42247;BME280;27913;42.722;23.268;2023-02-01T01:46:30;95084.03;;;-1.01;83.84
42247;BME280;27913;42.722;23.268;2023-02-01T01:49:06;95073.94;;;-1.04;83.78
42247;BME280;27913;42.722;23.268;2023-02-01T01:51:47;94999.13;;;-1.64;83.89
42247;BME280;27913;42.722;23.268;2023-02-01T01:54:19;95011.09;;;-1.63;83.87
42247;BME280;27913;42.722;23.268;2023-02-01T01:56:51;95004.63;;;-1.69;84.22
42247;BME280;27913;42.722;23.268;2023-02-01T01:59:17;94904.78;;;-2.27;84.23
42247;BME280;27913;42.722;23.268;2023-02-01T02:01:43;95091.13;;;-1.16;84.59
42247;BME280;27913;42.722;23.268;2023-02-01T02:04:09;95027.47;;;-1.51;84.45
42247;BME280;27913;42.722;23.268;2023-02-01T02:06:54;95081.63;;;-1.15;85.01
42247;BME280;27913;42.722;23.268;2023-02-01T02:09:22;95088.22;;;-1.11;84.84
42247;BME280;27913;42.722;23.268;2023-02-01T02:11:47;94987.19;;;-1.65;84.59
42247;BME280;27913;42.722;23.268;2023-02-01T02:14:14;95088.59;;;-1.04;84.40
42247;BME280;27913;42.722;23.268;2023-02-01T02:17:07;95027.72;;;-1.31;84.19
42247;BME280;27913;42.722;23.268;2023-02-01T02:26:01;95086.91;;;-1.17;84.86
42247;BME280;27913;42.722;23.268;2023-02-01T02:36:32;95060.94;;;-1.63;85.86
42247;BME280;27913;42.722;23.268;2023-02-01T02:41:44;95043.38;;;-1.58;86.02
42247;BME280;27913;42.722;23.268;2023-02-01T02:45:09;94953.69;;;-2.14;86.33
42247;BME280;27913;42.722;23.268;2023-02-01T02:48:21;94992.13;;;-1.87;86.28
42247;BME280;27913;42.722;23.268;2023-02-01T02:51:00;95099.88;;;-1.30;86.14
42247;BME280;27913;42.722;23.268;2023-02-01T02:53:53;95037.16;;;-1.55;85.67
42247;BME280;27913;42.722;23.268;2023-02-01T02:56:41;95021.53;;;-1.65;85.83
42247;BME280;27913;42.722;23.268;2023-02-01T02:59:26;94935.97;;;-2.19;85.71
42247;BME280;27913;42.722;23.268;2023-02-01T03:02:13;94949.53;;;-2.04;84.67
42247;BME280;27913;42.722;23.268;2023-02-01T03:04:57;95028.00;;;-1.59;84.37
42247;BME280;27913;42.722;23.268;2023-02-01T03:16:02;95095.25;;;-1.13;83.83
42247;BME280;27913;42.722;23.268;2023-02-01T03:21:06;95036.94;;;-1.52;83.83
42247;BME280;27913;42.722;23.268;2023-02-01T03:23:36;95048.09;;;-1.51;83.59
42247;BME280;27913;42.722;23.268;2023-02-01T03:26:05;95055.88;;;-1.40;83.68
42247;BME280;27913;42.722;23.268;2023-02-01T03:28:34;95105.59;;;-1.13;84.14
42247;BME280;27913;42.722;23.268;2023-02-01T03:31:00;95047.50;;;-1.55;84.31
42247;BME280;27913;42.722;23.268;2023-02-01T03:33:26;95114.72;;;-1.20;84.17
42247;BME280;27913;42.722;23.268;2023-02-01T03:36:20;94923.28;;;-2.34;83.90
42247;BME280;27913;42.722;23.268;2023-02-01T03:39:14;95104.28;;;-1.19;83.95
42247;BME280;27913;42.722;23.268;2023-02-01T03:41:53;95092.31;;;-1.20;83.57
42247;BME280;27913;42.722;23.268;2023-02-01T03:44:31;95099.72;;;-1.15;83.40
42247;BME280;27913;42.722;23.268;2023-02-01T03:47:08;95044.94;;;-1.43;83.27
42247;BME280;27913;42.722;23.268;2023-02-01T03:49:40;95066.53;;;-1.44;83.39
42247;BME280;27913;42.722;23.268;2023-02-01T03:52:11;95062.78;;;-1.40;83.53
42247;BME280;27913;42.722;23.268;2023-02-01T03:54:39;95054.53;;;-1.46;82.87
42247;BME280;27913;42.722;23.268;2023-02-01T03:57:11;94975.94;;;-1.89;82.50
42247;BME280;27913;42.722;23.268;2023-02-01T03:59:43;94980.16;;;-1.88;82.43
42247;BME280;27913;42.722;23.268;2023-02-01T04:02:10;95008.13;;;-1.70;82.50
42247;BME280;27913;42.722;23.268;2023-02-01T04:04:36;95034.00;;;-1.59;82.10
42247;BME280;27913;42.722;23.268;2023-02-01T04:07:01;95090.34;;;-1.16;82.36
42247;BME280;27913;42.722;23.268;2023-02-01T04:09:27;95081.03;;;-1.19;82.11
42247;BME280;27913;42.722;23.268;2023-02-01T04:11:52;95104.34;;;-0.96;82.13
42247;BME280;27913;42.722;23.268;2023-02-01T04:14:18;95068.22;;;-1.32;82.47
42247;BME280;27913;42.722;23.268;2023-02-01T04:16:44;95038.56;;;-1.51;82.46
42247;BME280;27913;42.722;23.268;2023-02-01T04:19:09;94984.31;;;-1.74;82.50
42247;BME280;27913;42.722;23.268;2023-02-01T04:21:35;95064.59;;;-1.29;82.65
42247;BME280;27913;42.722;23.268;2023-02-01T04:24:00;95125.38;;;-0.89;82.78
42247;BME280;27913;42.722;23.268;2023-02-01T04:26:26;95118.34;;;-0.87;82.64
42247;BME280;27913;42.722;23.268;2023-02-01T04:28:51;95092.09;;;-1.05;82.60
42247;BME280;27913;42.722;23.268;2023-02-01T04:31:18;95115.09;;;-0.78;82.94
42247;BME280;27913;42.722;23.268;2023-02-01T04:33:51;95116.84;;;-0.78;82.92
42247;BME280;27913;42.722;23.268;2023-02-01T04:36:18;95020.69;;;-1.41;83.00
42247;BME280;27913;42.722;23.268;2023-02-01T04:38:45;95048.44;;;-1.20;83.76
42247;BME280;27913;42.722;23.268;2023-02-01T04:41:11;95111.66;;;-0.90;84.24
42247;BME280;27913;42.722;23.268;2023-02-01T04:43:37;95120.91;;;-0.87;84.41
42247;BME280;27913;42.722;23.268;2023-02-01T04:46:02;95114.69;;;-0.96;84.29
42247;BME280;27913;42.722;23.268;2023-02-01T04:48:28;95036.53;;;-1.34;84.22
42247;BME280;27913;42.722;23.268;2023-02-01T04:50:53;95113.22;;;-0.76;84.45
42247;BME280;27913;42.722;23.268;2023-02-01T04:53:18;95072.16;;;-1.15;85.06
42247;BME280;27913;42.722;23.268;2023-02-01T04:55:44;95135.88;;;-0.79;86.07
42247;BME280;27913;42.722;23.268;2023-02-01T04:58:10;95059.31;;;-1.28;86.43
42247;BME280;27913;42.722;23.268;2023-02-01T05:00:37;95035.34;;;-1.41;86.86
42247;BME280;27913;42.722;23.268;2023-02-01T05:03:02;95139.13;;;-0.77;87.17
42247;BME280;27913;42.722;23.268;2023-02-01T05:05:28;95123.63;;;-0.89;87.34
42247;BME280;27913;42.722;23.268;2023-02-01T05:07:54;95138.66;;;-0.82;87.34
42247;BME280;27913;42.722;23.268;2023-02-01T05:10:20;95057.97;;;-1.45;87.02
42247;BME280;27913;42.722;23.268;2023-02-01T05:12:46;95154.38;;;-0.86;87.13
42247;BME280;27913;42.722;23.268;2023-02-01T05:15:30;95065.97;;;-1.37;86.87
42247;BME280;27913;42.722;23.268;2023-02-01T05:17:56;95140.75;;;-0.88;86.70
42247;BME280;27913;42.722;23.268;2023-02-01T05:20:22;95123.38;;;-0.97;86.58
42247;BME280;27913;42.722;23.268;2023-02-01T05:22:48;95142.56;;;-0.77;85.89
42247;BME280;27913;42.722;23.268;2023-02-01T05:25:13;95038.63;;;-1.39;85.68
42247;BME280;27913;42.722;23.268;2023-02-01T05:27:39;94894.13;;;-2.23;85.61
42247;BME280;27913;42.722;23.268;2023-02-01T05:30:05;95141.03;;;-0.68;85.52
42247;BME280;27913;42.722;23.268;2023-02-01T05:32:31;95071.09;;;-1.12;85.58
42247;BME280;27913;42.722;23.268;2023-02-01T05:34:56;95057.09;;;-1.21;85.38
42247;BME280;27913;42.722;23.268;2023-02-01T05:37:22;95138.59;;;-0.58;85.34
42247;BME280;27913;42.722;23.268;2023-02-01T05:39:48;95151.41;;;-0.56;85.17
42247;BME280;27913;42.722;23.268;2023-02-01T05:42:13;95148.47;;;-0.52;85.15
42247;BME280;27913;42.722;23.268;2023-02-01T05:44:39;95135.69;;;-0.53;85.01
42247;BME280;27913;42.722;23.268;2023-02-01T05:47:04;94878.63;;;-2.10;84.86
42247;BME280;27913;42.722;23.268;2023-02-01T05:49:30;95150.94;;;-0.50;84.97
42247;BME280;27913;42.722;23.268;2023-02-01T05:51:55;95050.59;;;-1.02;84.71
42247;BME280;27913;42.722;23.268;2023-02-01T05:54:21;95092.56;;;-0.76;84.54
42247;BME280;27913;42.722;23.268;2023-02-01T05:56:46;95101.94;;;-0.75;84.65
42247;BME280;27913;42.722;23.268;2023-02-01T05:59:12;95141.34;;;-0.37;84.48
42247;BME280;27913;42.722;23.268;2023-02-01T06:01:37;95133.47;;;-0.46;84.57
42247;BME280;27913;42.722;23.268;2023-02-01T06:04:03;95155.91;;;-0.35;84.40
42247;BME280;27913;42.722;23.268;2023-02-01T06:06:28;95148.97;;;-0.35;84.59
42247;BME280;27913;42.722;23.268;2023-02-01T06:08:54;95146.06;;;-0.30;83.77
42247;BME280;27913;42.722;23.268;2023-02-01T06:11:20;95156.75;;;-0.23;83.62
42247;BME280;27913;42.722;23.268;2023-02-01T06:13:46;95036.38;;;-0.97;83.26
42247;BME280;27913;42.722;23.268;2023-02-01T06:16:11;95156.38;;;-0.19;83.21
42247;BME280;27913;42.722;23.268;2023-02-01T06:18:37;95154.63;;;-0.18;83.14
42247;BME280;27913;42.722;23.268;2023-02-01T06:21:03;95071.88;;;-0.76;83.36
42247;BME280;27913;42.722;23.268;2023-02-01T06:23:29;95157.94;;;-0.16;83.40
42247;BME280;27913;42.722;23.268;2023-02-01T06:26:00;95073.06;;;-0.68;83.07
42247;BME280;27913;42.722;23.268;2023-02-01T06:28:27;95168.75;;;-0.11;83.08
42247;BME280;27913;42.722;23.268;2023-02-01T06:30:53;95159.13;;;-0.09;82.85
42247;BME280;27913;42.722;23.268;2023-02-01T06:33:19;94995.63;;;-1.16;82.42
42247;BME280;27913;42.722;23.268;2023-02-01T06:35:45;95159.81;;;-0.07;82.56
42247;BME280;27913;42.722;23.268;2023-02-01T06:38:11;95072.50;;;-0.61;82.06
42247;BME280;27913;42.722;23.268;2023-02-01T06:40:37;95120.22;;;-0.30;82.01
42247;BME280;27913;42.722;23.268;2023-02-01T06:43:03;95168.63;;;0.02;81.79
42247;BME280;27913;42.722;23.268;2023-02-01T06:45:29;95167.56;;;0.05;81.63
42247;BME280;27913;42.722;23.268;2023-02-01T06:47:54;95100.47;;;-0.43;81.97
42247;BME280;27913;42.722;23.268;2023-02-01T06:50:20;95170.72;;;-0.03;81.96
42247;BME280;27913;42.722;23.268;2023-02-01T06:52:45;95183.34;;;0.02;81.77
42247;BME280;27913;42.722;23.268;2023-02-01T06:55:11;95132.41;;;-0.32;82.13
42247;BME280;27913;42.722;23.268;2023-02-01T06:57:36;95026.16;;;-0.98;82.07
42247;BME280;27913;42.722;23.268;2023-02-01T07:00:03;95145.56;;;-0.24;81.96
42247;BME280;27913;42.722;23.268;2023-02-01T07:02:29;95182.84;;;0.08;81.95
42247;BME280;27913;42.722;23.268;2023-02-01T07:04:55;94999.50;;;-1.10;81.70
42247;BME280;27913;42.722;23.268;2023-02-01T07:07:20;95192.97;;;-0.01;81.38
42247;BME280;27913;42.722;23.268;2023-02-01T07:09:48;95215.19;;;0.14;80.86
42247;BME280;27913;42.722;23.268;2023-02-01T07:12:14;95203.91;;;0.15;81.17
42247;BME280;27913;42.722;23.268;2023-02-01T07:14:39;95197.41;;;0.09;81.06
42247;BME280;27913;42.722;23.268;2023-02-01T07:17:04;95219.19;;;0.18;80.70
42247;BME280;27913;42.722;23.268;2023-02-01T07:19:30;95027.00;;;-0.98;80.48
42247;BME280;27913;42.722;23.268;2023-02-01T07:21:55;95198.59;;;0.16;80.52
42247;BME280;27913;42.722;23.268;2023-02-01T07:24:21;95124.31;;;-0.39;80.29
42247;BME280;27913;42.722;23.268;2023-02-01T07:26:47;95227.88;;;0.28;80.45
42247;BME280;27913;42.722;23.268;2023-02-01T07:29:13;95135.59;;;-0.17;79.97
42247;BME280;27913;42.722;23.268;2023-02-01T07:31:38;95216.38;;;0.32;79.94
42247;BME280;27913;42.722;23.268;2023-02-01T07:34:04;95123.50;;;-0.28;79.50
42247;BME280;27913;42.722;23.268;2023-02-01T07:36:29;95221.09;;;0.39;79.69
42247;BME280;27913;42.722;23.268;2023-02-01T07:38:55;95216.13;;;0.35;79.23
42247;BME280;27913;42.722;23.268;2023-02-01T07:41:20;95237.53;;;0.38;78.92
42247;BME280;27913;42.722;23.268;2023-02-01T07:43:47;95220.97;;;0.40;79.04
42247;BME280;27913;42.722;23.268;2023-02-01T07:46:12;95230.13;;;0.44;78.97
42247;BME280;27913;42.722;23.268;2023-02-01T07:48:40;95236.13;;;0.45;78.78
42247;BME280;27913;42.722;23.268;2023-02-01T07:51:09;95223.09;;;0.35;78.64
42247;BME280;27913;42.722;23.268;2023-02-01T07:53:35;95235.53;;;0.53;78.30
42247;BME280;27913;42.722;23.268;2023-02-01T07:56:01;95141.25;;;-0.01;78.10
42247;BME280;27913;42.722;23.268;2023-02-01T07:58:28;95244.94;;;0.54;77.94
42247;BME280;27913;42.722;23.268;2023-02-01T08:00:54;95247.53;;;0.54;77.93
42247;BME280;27913;42.722;23.268;2023-02-01T08:03:38;95237.06;;;0.55;78.09
42247;BME280;27913;42.722;23.268;2023-02-01T08:06:04;95244.47;;;0.60;77.67
42247;BME280;27913;42.722;23.268;2023-02-01T08:08:30;95243.78;;;0.58;77.36
42247;BME280;27913;42.722;23.268;2023-02-01T08:11:00;95181.31;;;0.17;77.46
42247;BME280;27913;42.722;23.268;2023-02-01T08:13:26;95194.16;;;0.30;77.70
42247;BME280;27913;42.722;23.268;2023-02-01T08:15:51;95099.97;;;-0.14;77.23
42247;BME280;27913;42.722;23.268;2023-02-01T08:18:17;95251.50;;;0.81;77.42
42247;BME280;27913;42.722;23.268;2023-02-01T08:20:44;95212.72;;;0.58;76.93
42247;BME280;27913;42.722;23.268;2023-02-01T08:23:11;95249.03;;;0.79;76.85
42247;BME280;27913;42.722;23.268;2023-02-01T08:25:37;95239.88;;;0.75;76.88
42247;BME280;27913;42.722;23.268;2023-02-01T08:28:03;95255.97;;;0.90;77.26
42247;BME280;27913;42.722;23.268;2023-02-01T08:30:29;95078.84;;;-0.19;75.86
42247;BME280;27913;42.722;23.268;2023-02-01T08:32:54;95253.25;;;0.92;76.28
42247;BME280;27913;42.722;23.268;2023-02-01T08:35:20;95239.38;;;0.93;76.17
42247;BME280;27913;42.722;23.268;2023-02-01T08:37:45;95148.97;;;0.34;75.66
42247;BME280;27913;42.722;23.268;2023-02-01T08:40:11;95170.34;;;0.47;75.65
42247;BME280;27913;42.722;23.268;2023-02-01T08:42:36;95262.50;;;1.06;75.75
42247;BME280;27913;42.722;23.268;2023-02-01T08:45:22;95236.16;;;1.01;75.56
42247;BME280;27913;42.722;23.268;2023-02-01T08:47:52;95252.13;;;1.17;74.85
42247;BME280;27913;42.722;23.268;2023-02-01T08:50:17;95249.56;;;1.17;74.64
42247;BME280;27913;42.722;23.268;2023-02-01T08:52:45;95237.97;;;1.22;74.35
42247;BME280;27913;42.722;23.268;2023-02-01T08:55:11;95250.72;;;1.25;73.96
42247;BME280;27913;42.722;23.268;2023-02-01T08:57:37;95254.81;;;1.27;74.09
42247;BME280;27913;42.722;23.268;2023-02-01T09:00:05;95243.97;;;1.34;73.89
42247;BME280;27913;42.722;23.268;2023-02-01T09:02:31;95244.97;;;1.42;73.03
42247;BME280;27913;42.722;23.268;2023-02-01T09:04:56;95226.50;;;1.36;73.26
42247;BME280;27913;42.722;23.268;2023-02-01T09:07:22;95248.94;;;1.58;72.48
42247;BME280;27913;42.722;23.268;2023-02-01T09:09:48;95259.63;;;1.65;72.17
42247;BME280;27913;42.722;23.268;2023-02-01T09:12:14;95228.53;;;1.53;71.88
42247;BME280;27913;42.722;23.268;2023-02-01T09:15:39;95258.06;;;1.74;71.46
42247;BME280;27913;42.722;23.268;2023-02-01T09:17:37;95272.13;;;1.81;70.83
42247;BME280;27913;42.722;23.268;2023-02-01T09:20:03;95273.72;;;1.93;71.58
42247;BME280;27913;42.722;23.268;2023-02-01T09:22:29;95101.41;;;0.91;69.67
42247;BME280;27913;42.722;23.268;2023-02-01T09:24:54;95110.81;;;0.92;69.88
42247;BME280;27913;42.722;23.268;2023-02-01T09:27:20;95256.25;;;1.74;70.21
42247;BME280;27913;42.722;23.268;2023-02-01T09:29:46;95161.53;;;1.27;70.32
42247;BME280;27913;42.722;23.268;2023-02-01T09:32:18;95248.00;;;2.02;69.72
42247;BME280;27913;42.722;23.268;2023-02-01T09:34:43;95195.56;;;1.77;68.59
42247;BME280;27913;42.722;23.268;2023-02-01T09:37:09;95260.63;;;2.16;69.12
42247;BME280;27913;42.722;23.268;2023-02-01T09:39:34;95246.56;;;2.19;69.06
42247;BME280;27913;42.722;23.268;2023-02-01T09:44:44;95231.19;;;2.27;68.63
42247;BME280;27913;42.722;23.268;2023-02-01T09:47:15;95242.53;;;2.26;67.84
42247;BME280;27913;42.722;23.268;2023-02-01T09:50:02;95222.19;;;2.32;68.01
42247;BME280;27913;42.722;23.268;2023-02-01T09:52:43;95168.44;;;2.12;67.36
42247;BME280;27913;42.722;23.268;2023-02-01T09:55:14;95144.72;;;1.96;67.78
42247;BME280;27913;42.722;23.268;2023-02-01T09:58:22;95032.78;;;1.28;67.55
42247;BME280;27913;42.722;23.268;2023-02-01T10:00:56;95216.03;;;2.33;67.34
42247;BME280;27913;42.722;23.268;2023-02-01T10:03:28;95144.25;;;1.80;67.30
42247;BME280;27913;42.722;23.268;2023-02-01T10:06:20;95150.16;;;1.92;67.72
42247;BME280;27913;42.722;23.268;2023-02-01T10:11:51;95142.56;;;2.01;68.21
42247;BME280;27913;42.722;23.268;2023-02-01T10:17:00;95201.03;;;2.36;67.77
42247;BME280;27913;42.722;23.268;2023-02-01T10:22:09;95098.81;;;1.86;66.29
42247;BME280;27913;42.722;23.268;2023-02-01T10:24:49;95179.84;;;2.41;66.58
42247;BME280;27913;42.722;23.268;2023-02-01T10:27:42;95188.81;;;2.58;66.27
42247;BME280;27913;42.722;23.268;2023-02-01T10:32:42;95174.44;;;2.64;66.19
42247;BME280;27913;42.722;23.268;2023-02-01T10:35:30;95045.56;;;1.82;65.06
42247;BME280;27913;42.722;23.268;2023-02-01T10:38:00;95204.81;;;2.63;64.43
42247;BME280;27913;42.722;23.268;2023-02-01T10:40:27;95170.22;;;2.63;64.31
42247;BME280;27913;42.722;23.268;2023-02-01T10:42:57;95101.38;;;2.17;65.19
42247;BME280;27913;42.722;23.268;2023-02-01T10:45:27;95181.84;;;2.69;65.17
42247;BME280;27913;42.722;23.268;2023-02-01T10:47:54;95169.28;;;2.74;65.26
42247;BME280;27913;42.722;23.268;2023-02-01T10:50:48;95090.59;;;2.22;65.36
42247;BME280;27913;42.722;23.268;2023-02-01T10:53:23;95170.91;;;2.75;65.04
42247;BME280;27913;42.722;23.268;2023-02-01T10:55:54;95181.72;;;2.70;65.09
42247;BME280;27913;42.722;23.268;2023-02-01T10:58:28;95169.16;;;2.75;65.89
42247;BME280;27913;42.722;23.268;2023-02-01T11:01:08;94942.03;;;1.49;65.49
42247;BME280;27913;42.722;23.268;2023-02-01T11:03:41;95011.06;;;1.91;65.63
42247;BME280;27913;42.722;23.268;2023-02-01T11:06:26;95124.16;;;2.75;63.49
42247;BME280;27913;42.722;23.268;2023-02-01T11:09:01;95163.84;;;2.97;63.74
42247;BME280;27913;42.722;23.268;2023-02-01T11:16:57;95144.84;;;2.96;62.73
42247;BME280;27913;42.722;23.268;2023-02-01T11:19:24;95147.28;;;2.98;62.90
42247;BME280;27913;42.722;23.268;2023-02-01T11:21:55;94986.03;;;1.80;63.02
42247;BME280;27913;42.722;23.268;2023-02-01T11:24:34;95076.03;;;2.71;63.93
42247;BME280;27913;42.722;23.268;2023-02-01T11:27:05;95132.66;;;3.07;62.90
42247;BME280;27913;42.722;23.268;2023-02-01T11:29:46;95098.47;;;3.79;93.32
42247;BME280;27913;42.722;23.268;2023-02-01T11:32:16;95141.50;;;3.64;63.42
42247;BME280;27913;42.722;23.268;2023-02-01T11:34:46;95017.81;;;2.53;62.53
42247;BME280;27913;42.722;23.268;2023-02-01T11:37:25;95079.91;;;2.86;63.49
42247;BME280;27913;42.722;23.268;2023-02-01T11:40:00;94968.50;;;2.14;63.61
42247;BME280;27913;42.722;23.268;2023-02-01T11:42:28;95129.38;;;3.14;62.25
42247;BME280;27913;42.722;23.268;2023-02-01T11:45:33;95124.72;;;3.18;63.22
42247;BME280;27913;42.722;23.268;2023-02-01T11:48:13;94997.06;;;2.44;63.72
42247;BME280;27913;42.722;23.268;2023-02-01T11:59:16;95065.38;;;2.94;63.17
42247;BME280;27913;42.722;23.268;2023-02-01T12:02:16;95070.44;;;2.95;63.37
42247;BME280;27913;42.722;23.268;2023-02-01T12:08:06;95110.78;;;3.19;63.39
42247;BME280;27913;42.722;23.268;2023-02-01T12:13:28;95068.25;;;3.10;62.87
42247;BME280;27913;42.722;23.268;2023-02-01T12:18:54;95089.69;;;3.32;63.61
42247;BME280;27913;42.722;23.268;2023-02-01T12:33:07;95084.34;;;3.44;62.99
42247;BME280;27913;42.722;23.268;2023-02-01T12:35:56;94984.84;;;2.94;61.79
42247;BME280;27913;42.722;23.268;2023-02-01T12:41:35;95094.00;;;3.61;61.55
42247;BME280;27913;42.722;23.268;2023-02-01T12:44:12;95025.41;;;3.14;60.24
42247;BME280;27913;42.722;23.268;2023-02-01T12:53:07;95028.59;;;3.46;59.68
42247;BME280;27913;42.722;23.268;2023-02-01T12:58:40;95116.13;;;4.14;60.21
42247;BME280;27913;42.722;23.268;2023-02-01T13:04:12;95063.38;;;3.83;59.16
42247;BME280;27913;42.722;23.268;2023-02-01T13:07:05;95025.03;;;3.57;58.51
42247;BME280;27913;42.722;23.268;2023-02-01T13:16:02;95031.25;;;3.74;58.25
42247;BME280;27913;42.722;23.268;2023-02-01T13:18:37;94944.81;;;3.24;56.98
42247;BME280;27913;42.722;23.268;2023-02-01T13:21:29;95106.66;;;4.22;59.18
42247;BME280;27913;42.722;23.268;2023-02-01T13:23:57;95098.44;;;4.17;59.35
42247;BME280;27913;42.722;23.268;2023-02-01T13:26:23;94872.28;;;2.65;58.17
42247;BME280;27913;42.722;23.268;2023-02-01T13:29:02;95051.59;;;3.89;59.03
42247;BME280;27913;42.722;23.268;2023-02-01T13:40:38;95048.91;;;3.81;61.81
42247;BME280;27913;42.722;23.268;2023-02-01T13:42:58;95020.34;;;3.61;60.86
42247;BME280;27913;42.722;23.268;2023-02-01T13:45:29;94945.25;;;3.20;61.71
42247;BME280;27913;42.722;23.268;2023-02-01T13:47:58;95005.53;;;3.71;63.12
42247;BME280;27913;42.722;23.268;2023-02-01T13:50:38;94949.56;;;3.39;62.18
42247;BME280;27913;42.722;23.268;2023-02-01T13:55:40;95027.59;;;3.95;60.41
42247;BME280;27913;42.722;23.268;2023-02-01T13:58:18;95087.94;;;4.37;61.82
42247;BME280;27913;42.722;23.268;2023-02-01T14:00:44;95096.69;;;4.36;62.92
42247;BME280;27913;42.722;23.268;2023-02-01T14:03:15;95095.38;;;4.32;62.24
42247;BME280;27913;42.722;23.268;2023-02-01T14:08:13;95074.09;;;4.37;62.28
42247;BME280;27913;42.722;23.268;2023-02-01T14:13:35;95055.41;;;4.41;61.14
42247;BME280;27913;42.722;23.268;2023-02-01T14:21:29;95088.25;;;4.52;62.33
42247;BME280;27913;42.722;23.268;2023-02-01T14:32:00;95019.44;;;3.80;64.15
42247;BME280;27913;42.722;23.268;2023-02-01T14:37:02;94833.06;;;2.48;63.69
42247;BME280;27913;42.722;23.268;2023-02-01T14:39:33;95010.00;;;3.51;64.42
42247;BME280;27913;42.722;23.268;2023-02-01T14:42:03;95068.63;;;3.73;62.95
42247;BME280;27913;42.722;23.268;2023-02-01T14:44:35;95070.31;;;3.65;63.76
42247;BME280;27913;42.722;23.268;2023-02-01T14:47:05;95051.47;;;3.43;63.14
42247;BME280;27913;42.722;23.268;2023-02-01T14:49:33;94865.09;;;2.29;64.00
42247;BME280;27913;42.722;23.268;2023-02-01T14:52:02;95071.41;;;3.62;63.60
42247;BME280;27913;42.722;23.268;2023-02-01T14:54:30;95068.00;;;3.52;64.91
42247;BME280;27913;42.722;23.268;2023-02-01T14:56:57;95075.16;;;3.49;64.48
42247;BME280;27913;42.722;23.268;2023-02-01T14:59:23;95076.25;;;3.47;66.28
42247;BME280;27913;42.722;23.268;2023-02-01T15:01:53;95069.41;;;3.46;66.79
42247;BME280;27913;42.722;23.268;2023-02-01T15:04:20;95072.28;;;3.43;65.89
42247;BME280;27913;42.722;23.268;2023-02-01T15:06:58;95065.44;;;3.42;66.29
42247;BME280;27913;42.722;23.268;2023-02-01T15:09:38;95075.16;;;3.40;65.69
42247;BME280;27913;42.722;23.268;2023-02-01T15:14:39;94920.97;;;2.33;65.28
42247;BME280;27913;42.722;23.268;2023-02-01T15:17:24;95070.69;;;3.32;65.20
42247;BME280;27913;42.722;23.268;2023-02-01T15:19:58;94982.16;;;2.75;65.10
42247;BME280;27913;42.722;23.268;2023-02-01T15:22:29;94820.34;;;1.77;65.89
42247;BME280;27913;42.722;23.268;2023-02-01T15:24:56;95056.16;;;3.29;65.03
42247;BME280;27913;42.722;23.268;2023-02-01T15:27:23;94981.84;;;2.78;65.87
42247;BME280;27913;42.722;23.268;2023-02-01T15:29:49;95056.31;;;3.28;64.63